createdAt,value
2018-07-09T00:01:05.552Z,18.97
2018-07-09T00:03:34.152Z,18.91
2018-07-09T00:06:02.675Z,18.90
2018-07-09T00:08:31.231Z,18.95
2018-07-09T00:11:01.135Z,18.99
2018-07-09T00:13:30.271Z,18.96
2018-07-09T00:15:59.100Z,18.94
2018-07-09T00:18:27.702Z,18.92
2018-07-09T00:20:56.308Z,18.91
2018-07-09T00:23:24.920Z,18.91
2018-07-09T00:25:54.299Z,18.91
2018-07-09T00:28:23.285Z,18.87
2018-07-09T00:30:51.854Z,18.85
2018-07-09T00:33:20.976Z,18.87
2018-07-09T00:35:49.772Z,18.93
2018-07-09T00:38:18.910Z,18.90
2018-07-09T00:40:47.528Z,18.90
2018-07-09T00:46:06.988Z,18.76
2018-07-09T00:48:35.602Z,18.69
2018-07-09T00:51:04.441Z,18.63
2018-07-09T00:53:33.105Z,18.64
2018-07-09T00:56:01.661Z,18.68
2018-07-09T00:58:30.234Z,18.62
2018-07-09T01:00:58.865Z,18.74
2018-07-09T01:03:27.480Z,18.61
2018-07-09T01:05:56.140Z,18.49
2018-07-09T01:08:24.716Z,18.43
2018-07-09T01:11:04.355Z,18.40
2018-07-09T01:13:41.109Z,18.48
2018-07-09T01:16:10.547Z,18.43
2018-07-09T01:18:39.125Z,18.32
2018-07-09T01:21:11.348Z,18.29
2018-07-09T01:23:40.239Z,18.26
2018-07-09T01:26:09.354Z,18.19
2018-07-09T01:28:38.681Z,18.11
2018-07-09T01:31:07.467Z,18.06
2018-07-09T01:33:36.055Z,18.02
2018-07-09T01:36:04.691Z,17.99
2018-07-09T01:38:33.356Z,17.98
2018-07-09T01:41:01.948Z,18.06
2018-07-09T01:43:30.524Z,17.99
2018-07-09T01:45:59.148Z,17.98
2018-07-09T01:48:27.712Z,17.94
2018-07-09T01:50:56.351Z,17.93
2018-07-09T01:53:24.889Z,17.94
2018-07-09T01:55:53.581Z,17.98
2018-07-09T01:58:22.095Z,18.00
2018-07-09T02:00:50.669Z,18.07
2018-07-09T02:03:19.568Z,18.18
2018-07-09T02:05:48.123Z,18.09
2018-07-09T02:08:16.719Z,17.95
2018-07-09T02:10:45.356Z,17.98
2018-07-09T02:13:13.927Z,18.02
2018-07-09T02:15:42.487Z,18.11
2018-07-09T02:18:11.039Z,18.16
2018-07-09T02:20:39.590Z,17.96
2018-07-09T02:23:08.225Z,17.97
2018-07-09T02:25:36.781Z,18.00
2018-07-09T02:28:05.376Z,18.05
2018-07-09T02:30:34.944Z,18.06
2018-07-09T02:33:03.582Z,18.07
2018-07-09T02:35:32.134Z,18.11
2018-07-09T02:38:00.864Z,18.15
2018-07-09T02:40:29.430Z,18.16
2018-07-09T02:45:48.354Z,18.02
2018-07-09T02:48:17.191Z,18.04
2018-07-09T02:50:45.755Z,18.07
2018-07-09T02:53:14.387Z,18.13
2018-07-09T02:55:43.083Z,18.15
2018-07-09T02:58:11.624Z,18.07
2018-07-09T03:00:40.234Z,18.07
2018-07-09T03:03:08.784Z,18.02
2018-07-09T03:05:37.363Z,18.02
2018-07-09T03:08:06.107Z,18.03
2018-07-09T03:10:34.728Z,17.97
2018-07-09T03:13:03.344Z,17.98
2018-07-09T03:15:31.911Z,18.01
2018-07-09T03:18:00.497Z,18.04
2018-07-09T03:20:29.035Z,18.05
2018-07-09T03:22:57.570Z,18.09
2018-07-09T03:25:26.200Z,18.10
2018-07-09T03:27:54.744Z,18.17
2018-07-09T03:30:23.520Z,18.19
2018-07-09T03:32:52.161Z,18.10
2018-07-09T03:35:20.824Z,18.10
2018-07-09T03:37:49.353Z,18.10
2018-07-09T03:40:17.992Z,18.05
2018-07-09T03:42:46.556Z,18.07
2018-07-09T03:45:15.128Z,18.01
2018-07-09T03:47:43.715Z,18.05
2018-07-09T03:50:12.309Z,18.10
2018-07-09T03:52:40.851Z,18.17
2018-07-09T03:55:09.559Z,18.19
2018-07-09T03:57:38.091Z,18.10
2018-07-09T04:00:06.656Z,18.10
2018-07-09T04:02:35.211Z,18.21
2018-07-09T04:05:03.820Z,18.28
2018-07-09T04:07:32.368Z,18.34
2018-07-09T04:10:00.944Z,18.40
2018-07-09T04:12:29.507Z,18.43
2018-07-09T04:14:58.128Z,18.46
2018-07-09T04:17:26.692Z,18.41
2018-07-09T04:19:55.244Z,18.44
2018-07-09T04:22:23.799Z,18.36
2018-07-09T04:24:52.325Z,18.39
2018-07-09T04:27:20.986Z,18.42
2018-07-09T04:29:49.542Z,18.45
2018-07-09T04:32:18.147Z,18.44
2018-07-09T04:37:36.832Z,18.27
2018-07-09T04:40:05.365Z,18.24
2018-07-09T04:42:33.908Z,18.32
2018-07-09T04:45:02.484Z,18.32
2018-07-09T04:47:31.052Z,18.35
2018-07-09T04:49:59.784Z,18.40
2018-07-09T04:52:28.340Z,18.50
2018-07-09T04:54:56.902Z,18.59
2018-07-09T04:57:25.444Z,18.62
2018-07-09T04:59:54.011Z,18.69
2018-07-09T05:02:22.569Z,18.78
2018-07-09T05:04:51.136Z,18.83
2018-07-09T05:07:19.760Z,18.90
2018-07-09T05:09:48.429Z,18.96
2018-07-09T05:12:16.984Z,19.03
2018-07-09T05:14:45.528Z,19.00
2018-07-09T05:17:14.185Z,19.03
2018-07-09T05:19:42.761Z,19.06
2018-07-09T05:22:11.396Z,19.12
2018-07-09T05:24:40.004Z,19.16
2018-07-09T05:27:09.043Z,19.17
2018-07-09T05:29:37.773Z,19.17
2018-07-09T05:32:06.328Z,19.27
2018-07-09T05:34:34.894Z,19.36
2018-07-09T05:37:03.475Z,19.49
2018-07-09T05:39:32.103Z,19.68
2018-07-09T05:42:00.667Z,19.80
2018-07-09T05:44:29.252Z,19.96
2018-07-09T05:46:57.889Z,20.09
2018-07-09T05:49:26.648Z,20.12
2018-07-09T05:51:55.499Z,20.30
2018-07-09T05:54:24.120Z,20.46
2018-07-09T05:56:52.676Z,20.70
2018-07-09T05:59:21.281Z,20.90
2018-07-09T06:01:49.824Z,21.07
2018-07-09T06:04:18.583Z,21.12
2018-07-09T06:06:47.384Z,20.99
2018-07-09T06:09:15.923Z,21.05
2018-07-09T06:11:44.451Z,21.12
2018-07-09T06:14:13.028Z,21.05
2018-07-09T06:16:48.182Z,21.12
2018-07-09T06:19:16.762Z,21.42
2018-07-09T06:21:45.421Z,21.65
2018-07-09T06:24:14.107Z,21.69
2018-07-09T06:26:42.664Z,21.79
2018-07-09T06:29:11.480Z,22.00
2018-07-09T06:31:40.077Z,22.05
2018-07-09T06:34:08.671Z,22.25
2018-07-09T06:36:37.284Z,22.28
2018-07-09T06:39:06.879Z,22.52
2018-07-09T06:41:35.465Z,22.73
2018-07-09T06:44:04.045Z,22.57
2018-07-09T06:46:32.688Z,22.76
2018-07-09T06:49:01.402Z,22.76
2018-07-09T06:51:30.480Z,22.95
2018-07-09T06:53:59.048Z,23.05
2018-07-09T06:56:27.721Z,23.23
2018-07-09T06:59:05.254Z,23.33
2018-07-09T07:01:47.861Z,23.35
2018-07-09T07:04:25.108Z,23.55
2018-07-09T07:07:04.814Z,23.66
2018-07-09T07:09:42.553Z,23.76
2018-07-09T07:12:19.487Z,23.63
2018-07-09T07:14:55.534Z,23.58
2018-07-09T07:17:33.254Z,23.55
2018-07-09T07:20:10.780Z,23.54
2018-07-09T07:22:50.667Z,23.62
2018-07-09T07:25:30.839Z,23.62
2018-07-09T07:28:08.170Z,23.61
2018-07-09T07:30:45.507Z,23.55
2018-07-09T07:33:28.366Z,23.57
2018-07-09T07:36:08.052Z,23.66
2018-07-09T07:38:46.795Z,23.43
2018-07-09T07:41:24.035Z,23.02
2018-07-09T07:44:01.099Z,23.01
2018-07-09T07:46:39.745Z,23.32
2018-07-09T07:49:18.541Z,23.52
2018-07-09T07:51:56.891Z,23.58
2018-07-09T07:54:34.360Z,23.69
2018-07-09T07:57:11.696Z,23.76
2018-07-09T07:59:49.017Z,23.87
2018-07-09T08:02:25.987Z,23.89
2018-07-09T08:04:58.196Z,24.19
2018-07-09T08:07:26.893Z,24.06
2018-07-09T08:09:56.333Z,24.00
2018-07-09T08:14:53.676Z,24.32
2018-07-09T08:17:22.452Z,24.43
2018-07-09T08:19:51.016Z,24.76
2018-07-09T08:22:19.636Z,24.70
2018-07-09T08:24:48.248Z,24.04
2018-07-09T08:27:16.845Z,23.92
2018-07-09T08:29:45.392Z,23.92
2018-07-09T08:32:14.086Z,23.56
2018-07-09T08:34:42.702Z,23.62
2018-07-09T08:37:11.558Z,23.78
2018-07-09T08:39:40.133Z,23.97
2018-07-09T08:42:08.821Z,23.98
2018-07-09T08:44:40.186Z,24.08
2018-07-09T08:47:09.204Z,23.96
2018-07-09T08:49:37.921Z,24.04
2018-07-09T08:52:06.448Z,24.12
2018-07-09T08:54:35.036Z,24.30
2018-07-09T08:57:03.990Z,24.29
2018-07-09T08:59:32.924Z,24.34
2018-07-09T09:02:01.617Z,24.52
2018-07-09T09:04:30.212Z,24.92
2018-07-09T09:06:58.789Z,25.05
2018-07-09T09:09:27.427Z,24.73
2018-07-09T09:11:55.983Z,24.30
2018-07-09T09:14:24.561Z,24.29
2018-07-09T09:16:53.124Z,24.39
2018-07-09T09:19:21.772Z,24.17
2018-07-09T09:21:50.339Z,24.26
2018-07-09T09:24:18.965Z,23.98
2018-07-09T09:26:47.616Z,23.87
2018-07-09T09:29:16.328Z,23.91
2018-07-09T09:31:44.961Z,23.87
2018-07-09T09:34:13.646Z,23.95
2018-07-09T09:36:42.199Z,24.11
2018-07-09T09:39:10.748Z,23.90
2018-07-09T09:41:39.380Z,23.53
2018-07-09T09:44:07.991Z,23.42
2018-07-09T09:46:36.646Z,23.46
2018-07-09T09:49:05.343Z,23.26
2018-07-09T09:51:33.946Z,23.28
2018-07-09T09:54:02.784Z,23.51
2018-07-09T09:56:31.328Z,23.61
2018-07-09T09:58:59.928Z,23.68
2018-07-09T10:01:28.694Z,23.88
2018-07-09T10:03:57.287Z,23.87
2018-07-09T10:06:26.823Z,23.96
2018-07-09T10:08:55.412Z,23.73
2018-07-09T10:11:26.587Z,23.60
2018-07-09T10:13:55.353Z,23.68
2018-07-09T10:16:24.126Z,23.84
2018-07-09T10:18:52.689Z,23.91
2018-07-09T10:21:21.312Z,24.17
2018-07-09T10:23:49.922Z,24.17
2018-07-09T10:26:18.491Z,23.86
2018-07-09T10:28:47.112Z,23.86
2018-07-09T10:31:15.721Z,24.01
2018-07-09T10:33:44.296Z,24.21
2018-07-09T10:36:12.868Z,24.17
2018-07-09T10:38:41.707Z,24.01
2018-07-09T10:41:10.604Z,23.88
2018-07-09T10:43:39.556Z,24.23
2018-07-09T10:46:08.200Z,24.75
2018-07-09T10:48:36.937Z,24.91
2018-07-09T10:51:05.526Z,25.22
2018-07-09T10:53:34.124Z,25.29
2018-07-09T10:56:02.741Z,24.59
2018-07-09T10:58:31.569Z,24.61
2018-07-09T11:01:00.270Z,24.05
2018-07-09T11:03:28.823Z,23.97
2018-07-09T11:05:57.404Z,24.02
2018-07-09T11:08:26.009Z,24.27
2018-07-09T11:10:54.554Z,24.43
2018-07-09T11:13:23.089Z,24.56
2018-07-09T11:15:51.655Z,24.81
2018-07-09T11:18:20.221Z,25.20
2018-07-09T11:20:48.947Z,25.21
2018-07-09T11:23:17.600Z,25.01
2018-07-09T11:25:46.161Z,25.09
2018-07-09T11:28:14.820Z,25.22
2018-07-09T11:30:43.861Z,25.43
2018-07-09T11:33:12.807Z,25.00
2018-07-09T11:35:41.429Z,24.80
2018-07-09T11:38:10.860Z,24.69
2018-07-09T11:40:39.467Z,24.54
2018-07-09T11:43:08.056Z,24.52
2018-07-09T11:45:36.704Z,24.70
2018-07-09T11:48:05.309Z,24.49
2018-07-09T11:50:33.948Z,24.37
2018-07-09T11:53:02.689Z,24.29
2018-07-09T11:55:31.309Z,24.11
2018-07-09T11:58:00.050Z,23.99
2018-07-09T12:00:28.667Z,23.90
2018-07-09T12:02:57.248Z,24.00
2018-07-09T12:05:25.826Z,23.91
2018-07-09T12:07:54.401Z,23.64
2018-07-09T12:10:23.905Z,23.68
2018-07-09T12:12:52.448Z,24.23
2018-07-09T12:15:21.092Z,24.59
2018-07-09T12:17:50.545Z,24.46
2018-07-09T12:20:19.310Z,25.02
2018-07-09T12:22:47.916Z,24.93
2018-07-09T12:25:16.512Z,25.42
2018-07-09T12:27:45.150Z,25.90
2018-07-09T12:30:13.731Z,26.10
2018-07-09T12:32:42.341Z,26.15
2018-07-09T12:35:11.036Z,26.01
2018-07-09T12:37:39.878Z,26.20
2018-07-09T12:40:08.445Z,26.56
2018-07-09T12:42:37.105Z,26.66
2018-07-09T12:45:06.061Z,26.11
2018-07-09T12:47:34.668Z,26.16
2018-07-09T12:50:03.252Z,25.86
2018-07-09T12:52:31.799Z,25.55
2018-07-09T12:55:00.369Z,24.97
2018-07-09T12:57:28.973Z,25.09
2018-07-09T12:59:57.531Z,25.54
2018-07-09T13:02:26.228Z,25.42
2018-07-09T13:04:54.848Z,25.10
2018-07-09T13:07:23.409Z,24.82
2018-07-09T13:09:52.112Z,25.05
2018-07-09T13:12:25.971Z,25.10
2018-07-09T13:14:54.598Z,24.92
2018-07-09T13:17:23.494Z,24.85
2018-07-09T13:19:52.097Z,24.90
2018-07-09T13:22:21.073Z,24.66
2018-07-09T13:24:50.195Z,24.72
2018-07-09T13:27:18.803Z,24.87
2018-07-09T13:29:47.700Z,24.35
2018-07-09T13:32:16.502Z,23.96
2018-07-09T13:34:45.324Z,23.93
2018-07-09T13:37:14.140Z,24.27
2018-07-09T13:39:42.736Z,24.64
2018-07-09T13:42:11.328Z,24.69
2018-07-09T13:44:39.950Z,24.90
2018-07-09T13:47:08.527Z,24.80
2018-07-09T13:49:37.556Z,24.92
2018-07-09T13:52:06.157Z,24.88
2018-07-09T13:54:34.767Z,25.07
2018-07-09T13:57:03.428Z,24.99
2018-07-09T13:59:31.985Z,25.26
2018-07-09T14:02:00.523Z,24.88
2018-07-09T14:04:29.103Z,24.98
2018-07-09T14:06:57.655Z,24.51
2018-07-09T14:09:26.283Z,24.57
2018-07-09T14:11:54.833Z,24.42
2018-07-09T14:14:23.409Z,24.61
2018-07-09T14:16:52.813Z,24.75
2018-07-09T14:20:42.426Z,24.74
2018-07-09T14:23:12.332Z,24.63
2018-07-09T14:25:45.844Z,24.71
2018-07-09T14:28:14.458Z,24.59
2018-07-09T14:30:43.131Z,24.68
2018-07-09T14:33:11.905Z,24.73
2018-07-09T14:35:41.156Z,24.72
2018-07-09T14:38:09.736Z,24.87
2018-07-09T14:40:38.377Z,24.79
2018-07-09T14:43:07.099Z,24.59
2018-07-09T14:45:35.802Z,24.51
2018-07-09T14:48:04.544Z,24.26
2018-07-09T14:50:33.099Z,24.47
2018-07-09T14:53:02.365Z,24.38
2018-07-09T14:55:30.996Z,24.86
2018-07-09T14:57:59.600Z,25.17
2018-07-09T15:00:28.247Z,25.19
2018-07-09T15:02:56.915Z,25.16
2018-07-09T15:05:25.531Z,25.54
2018-07-09T15:07:54.457Z,25.62
2018-07-09T15:10:23.108Z,25.60
2018-07-09T15:12:51.708Z,26.02
2018-07-09T15:15:20.272Z,25.87
2018-07-09T15:17:49.065Z,25.51
2018-07-09T15:20:17.671Z,25.69
2018-07-09T15:22:46.244Z,25.88
2018-07-09T15:25:15.081Z,26.00
2018-07-09T15:27:43.691Z,26.10
2018-07-09T15:30:12.439Z,26.15
2018-07-09T15:32:41.000Z,26.19
2018-07-09T15:35:15.308Z,26.15
2018-07-09T15:37:44.124Z,26.03
2018-07-09T15:40:12.772Z,25.96
2018-07-09T15:42:41.590Z,25.96
2018-07-09T15:45:10.343Z,25.85
2018-07-09T15:47:38.957Z,25.90
2018-07-09T15:50:07.567Z,25.88
2018-07-09T15:52:36.264Z,25.75
2018-07-09T15:55:04.914Z,25.59
2018-07-09T15:57:33.496Z,25.62
2018-07-09T16:00:18.174Z,25.62
2018-07-09T16:02:52.016Z,25.43
2018-07-09T16:05:24.399Z,25.54
2018-07-09T16:08:01.880Z,25.48
2018-07-09T16:10:31.329Z,25.36
2018-07-09T16:13:10.370Z,25.31
2018-07-09T16:15:48.932Z,25.15
2018-07-09T16:18:26.614Z,24.97
2018-07-09T16:21:04.672Z,24.79
2018-07-09T16:23:33.337Z,24.69
2018-07-09T16:26:01.970Z,24.47
2018-07-09T16:28:35.987Z,23.86
2018-07-09T16:31:05.016Z,23.75
2018-07-09T16:33:33.632Z,23.15
2018-07-09T16:36:02.536Z,23.32
2018-07-09T16:38:31.595Z,23.24
2018-07-09T16:41:00.221Z,23.19
2018-07-09T16:43:28.768Z,23.02
2018-07-09T16:45:57.687Z,23.20
2018-07-09T16:48:26.259Z,23.17
2018-07-09T16:50:54.860Z,23.42
2018-07-09T16:53:30.660Z,23.10
2018-07-09T16:55:59.232Z,22.85
2018-07-09T16:58:27.768Z,22.82
2018-07-09T17:00:56.827Z,22.76
2018-07-09T17:03:25.476Z,22.58
2018-07-09T17:05:59.996Z,22.57
2018-07-09T17:08:29.000Z,22.28
2018-07-09T17:10:57.635Z,22.20
2018-07-09T17:13:26.784Z,22.20
2018-07-09T17:15:55.844Z,22.29
2018-07-09T17:18:27.952Z,22.43
2018-07-09T17:21:05.829Z,22.56
2018-07-09T17:23:44.685Z,22.58
2018-07-09T17:26:22.611Z,22.60
2018-07-09T17:29:01.596Z,22.71
2018-07-09T17:31:40.545Z,22.67
2018-07-09T17:34:09.205Z,22.69
2018-07-09T17:36:37.780Z,22.62
2018-07-09T17:39:07.110Z,22.60
2018-07-09T17:41:35.731Z,22.51
2018-07-09T17:44:04.317Z,22.56
2018-07-09T17:46:32.933Z,22.20
2018-07-09T17:49:01.501Z,22.02
2018-07-09T17:51:30.053Z,22.09
2018-07-09T17:53:58.600Z,22.11
2018-07-09T17:56:27.184Z,22.20
2018-07-09T17:58:55.821Z,21.95
2018-07-09T18:01:24.428Z,21.84
2018-07-09T18:03:52.983Z,21.11
2018-07-09T18:06:22.452Z,20.95
2018-07-09T18:08:50.998Z,20.99
2018-07-09T18:11:19.563Z,20.88
2018-07-09T18:13:48.163Z,21.17
2018-07-09T18:16:16.818Z,21.06
2018-07-09T18:18:45.509Z,21.22
2018-07-09T18:21:14.120Z,21.22
2018-07-09T18:23:42.733Z,21.15
2018-07-09T18:26:12.401Z,21.12
2018-07-09T18:28:41.022Z,21.30
2018-07-09T18:31:09.604Z,21.38
2018-07-09T18:33:38.168Z,21.44
2018-07-09T18:36:06.807Z,21.50
2018-07-09T18:38:35.420Z,21.36
2018-07-09T18:41:04.004Z,20.93
2018-07-09T18:43:32.596Z,20.73
2018-07-09T18:46:01.817Z,20.71
2018-07-09T18:48:30.382Z,20.75
2018-07-09T18:50:58.993Z,20.87
2018-07-09T18:53:27.884Z,21.02
2018-07-09T18:55:56.445Z,21.09
2018-07-09T18:58:25.063Z,21.16
2018-07-09T19:00:53.625Z,21.12
2018-07-09T19:03:22.179Z,21.08
2018-07-09T19:07:03.379Z,21.07
2018-07-09T19:09:41.462Z,20.50
2018-07-09T19:12:21.425Z,20.35
2018-07-09T19:14:50.656Z,20.47
2018-07-09T19:18:04.182Z,20.47
2018-07-09T19:20:48.398Z,19.90
2018-07-09T19:23:22.225Z,20.07
2018-07-09T19:25:49.549Z,20.29
2018-07-09T19:28:17.093Z,20.42
2018-07-09T19:30:44.365Z,20.58
2018-07-09T19:33:11.690Z,20.19
2018-07-09T19:35:39.044Z,20.14
2018-07-09T19:38:06.364Z,20.06
2018-07-09T19:40:35.057Z,20.04
2018-07-09T19:43:02.412Z,19.95
2018-07-09T19:45:29.710Z,19.89
2018-07-09T19:47:57.001Z,20.05
2018-07-09T19:50:24.427Z,20.07
2018-07-09T19:52:51.769Z,19.53
2018-07-09T19:55:19.109Z,18.93
2018-07-09T19:57:46.372Z,19.16
2018-07-09T20:00:13.659Z,19.13
2018-07-09T20:02:40.976Z,19.39
2018-07-09T20:05:08.391Z,19.80
2018-07-09T20:07:36.100Z,19.58
2018-07-09T20:10:08.445Z,19.60
2018-07-09T20:12:41.059Z,19.75
2018-07-09T20:15:13.516Z,19.86
2018-07-09T20:17:43.296Z,19.99
2018-07-09T20:20:10.589Z,20.03
2018-07-09T20:22:37.878Z,20.12
2018-07-09T20:25:05.513Z,20.19
2018-07-09T20:27:32.810Z,20.14
2018-07-09T20:30:00.099Z,20.13
2018-07-09T20:32:27.415Z,20.17
2018-07-09T20:34:54.707Z,20.21
2018-07-09T20:37:22.180Z,20.21
2018-07-09T20:39:49.472Z,20.26
2018-07-09T20:42:16.920Z,20.02
2018-07-09T20:44:44.249Z,19.96
2018-07-09T20:47:11.635Z,19.81
2018-07-09T20:49:38.971Z,19.87
2018-07-09T20:52:06.519Z,19.75
2018-07-09T20:54:33.890Z,19.49
2018-07-09T20:57:02.260Z,19.17
2018-07-09T20:59:29.535Z,19.00
2018-07-09T21:01:56.848Z,18.77
2018-07-09T21:04:26.263Z,18.85
2018-07-09T21:06:54.175Z,18.98
2018-07-09T21:09:21.467Z,19.22
2018-07-09T21:11:48.775Z,19.45
2018-07-09T21:14:16.189Z,19.64
2018-07-09T21:16:43.544Z,19.82
2018-07-09T21:19:11.344Z,19.89
2018-07-09T21:21:38.647Z,19.95
2018-07-09T21:24:06.025Z,20.02
2018-07-09T21:26:33.377Z,20.03
2018-07-09T21:29:00.660Z,20.06
2018-07-09T21:31:28.044Z,19.90
2018-07-09T21:33:55.368Z,19.86
2018-07-09T21:36:22.702Z,19.92
2018-07-09T21:38:50.040Z,19.95
2018-07-09T21:41:17.437Z,19.96
2018-07-09T21:43:44.723Z,19.98
2018-07-09T21:46:12.033Z,19.83
2018-07-09T21:48:39.356Z,19.73
2018-07-09T21:51:06.668Z,19.75
2018-07-09T21:53:33.978Z,19.69
2018-07-09T21:56:01.617Z,19.76
2018-07-09T21:58:29.004Z,19.82
2018-07-09T22:00:56.350Z,19.86
2018-07-09T22:03:23.709Z,19.90
2018-07-09T22:05:51.496Z,19.88
2018-07-09T22:08:19.199Z,19.87
2018-07-09T22:10:46.492Z,19.81
2018-07-09T22:13:13.789Z,19.81
2018-07-09T22:15:41.097Z,19.82
2018-07-09T22:18:08.393Z,19.84
2018-07-09T22:20:35.720Z,19.85
2018-07-09T22:23:03.046Z,19.88
2018-07-09T22:25:30.368Z,19.94
2018-07-09T22:27:57.642Z,19.94
2018-07-09T22:30:30.476Z,19.96
2018-07-09T22:32:59.079Z,19.98
2018-07-09T22:35:27.954Z,19.94
2018-07-09T22:37:56.490Z,19.90
2018-07-09T22:40:25.162Z,19.76
2018-07-09T22:42:53.757Z,19.73
2018-07-09T22:45:22.345Z,18.99
2018-07-09T22:47:50.965Z,18.74
2018-07-09T22:50:19.571Z,18.39
2018-07-09T22:52:48.168Z,18.32
2018-07-09T22:55:27.808Z,18.37
2018-07-09T22:57:56.343Z,18.73
2018-07-09T23:00:24.951Z,18.99
2018-07-09T23:03:07.870Z,19.09
2018-07-09T23:05:36.425Z,18.86
2018-07-09T23:08:05.219Z,18.68
2018-07-09T23:12:52.900Z,18.81
2018-07-09T23:15:31.808Z,19.00
2018-07-09T23:18:11.880Z,19.11
2018-07-09T23:20:51.606Z,19.22
2018-07-09T23:23:18.952Z,19.36
2018-07-09T23:25:46.237Z,19.21
2018-07-09T23:28:13.624Z,19.26
2018-07-09T23:30:40.918Z,19.32
2018-07-09T23:33:08.253Z,19.35
2018-07-09T23:35:35.519Z,19.29
2018-07-09T23:38:02.857Z,19.35
2018-07-09T23:40:30.140Z,19.43
2018-07-09T23:42:57.434Z,19.49
2018-07-09T23:45:24.772Z,19.31
2018-07-09T23:47:52.056Z,19.05
2018-07-09T23:50:19.336Z,18.99
2018-07-09T23:52:46.640Z,19.02
2018-07-09T23:55:13.964Z,19.10
2018-07-09T23:59:55.215Z,19.18
